sensor_id;sensor_type;location;lat;lon;timestamp;P1;durP1;ratioP1;P2;durP2;ratioP2
60318;SDS011;46163;52.306;5.634;2022-10-19T00:01:00;0.50;;;0.50;;
60318;SDS011;46163;52.306;5.634;2022-10-19T00:03:30;0.52;;;0.52;;
60318;SDS011;46163;52.306;5.634;2022-10-19T00:05:56;0.77;;;0.57;;
60318;SDS011;46163;52.306;5.634;2022-10-19T00:08:22;1.55;;;0.82;;
60318;SDS011;46163;52.306;5.634;2022-10-19T00:10:48;0.50;;;0.50;;
60318;SDS011;46163;52.306;5.634;2022-10-19T00:13:13;0.70;;;0.70;;
60318;SDS011;46163;52.306;5.634;2022-10-19T00:15:39;0.70;;;0.70;;
60318;SDS011;46163;52.306;5.634;2022-10-19T00:18:06;0.60;;;0.60;;
60318;SDS011;46163;52.306;5.634;2022-10-19T00:20:33;0.60;;;0.60;;
60318;SDS011;46163;52.306;5.634;2022-10-19T00:23:00;0.75;;;0.70;;
60318;SDS011;46163;52.306;5.634;2022-10-19T00:25:25;0.60;;;0.60;;
60318;SDS011;46163;52.306;5.634;2022-10-19T00:27:51;0.47;;;0.47;;
60318;SDS011;46163;52.306;5.634;2022-10-19T00:32:44;0.52;;;0.52;;
60318;SDS011;46163;52.306;5.634;2022-10-19T00:35:10;0.47;;;0.47;;
60318;SDS011;46163;52.306;5.634;2022-10-19T00:37:36;0.60;;;0.60;;
60318;SDS011;46163;52.306;5.634;2022-10-19T00:40:02;0.50;;;0.50;;
60318;SDS011;46163;52.306;5.634;2022-10-19T00:42:28;0.57;;;0.57;;
60318;SDS011;46163;52.306;5.634;2022-10-19T00:44:55;0.60;;;0.57;;
60318;SDS011;46163;52.306;5.634;2022-10-19T00:47:23;0.68;;;0.68;;
60318;SDS011;46163;52.306;5.634;2022-10-19T00:49:49;0.65;;;0.65;;
60318;SDS011;46163;52.306;5.634;2022-10-19T00:52:16;0.63;;;0.60;;
60318;SDS011;46163;52.306;5.634;2022-10-19T00:54:44;0.50;;;0.50;;
60318;SDS011;46163;52.306;5.634;2022-10-19T00:57:11;0.55;;;0.55;;
60318;SDS011;46163;52.306;5.634;2022-10-19T00:59:38;0.60;;;0.60;;
60318;SDS011;46163;52.306;5.634;2022-10-19T01:02:05;0.50;;;0.50;;
60318;SDS011;46163;52.306;5.634;2022-10-19T01:04:32;0.38;;;0.38;;
60318;SDS011;46163;52.306;5.634;2022-10-19T01:07:01;0.40;;;0.40;;
60318;SDS011;46163;52.306;5.634;2022-10-19T01:09:28;0.50;;;0.50;;
60318;SDS011;46163;52.306;5.634;2022-10-19T01:12:04;0.55;;;0.55;;
60318;SDS011;46163;52.306;5.634;2022-10-19T01:17:36;0.60;;;0.60;;
60318;SDS011;46163;52.306;5.634;2022-10-19T01:42:14;1.00;;;0.60;;
60318;SDS011;46163;52.306;5.634;2022-10-19T01:44:48;0.47;;;0.47;;
60318;SDS011;46163;52.306;5.634;2022-10-19T01:47:22;0.60;;;0.60;;
60318;SDS011;46163;52.306;5.634;2022-10-19T01:49:53;0.50;;;0.50;;
60318;SDS011;46163;52.306;5.634;2022-10-19T01:52:23;0.50;;;0.50;;
60318;SDS011;46163;52.306;5.634;2022-10-19T01:54:51;0.50;;;0.50;;
60318;SDS011;46163;52.306;5.634;2022-10-19T01:57:21;0.50;;;0.50;;
60318;SDS011;46163;52.306;5.634;2022-10-19T01:59:52;0.57;;;0.57;;
60318;SDS011;46163;52.306;5.634;2022-10-19T02:02:19;1.25;;;0.45;;
60318;SDS011;46163;52.306;5.634;2022-10-19T02:04:47;0.50;;;0.50;;
60318;SDS011;46163;52.306;5.634;2022-10-19T02:07:13;0.60;;;0.60;;
60318;SDS011;46163;52.306;5.634;2022-10-19T02:09:40;0.38;;;0.38;;
60318;SDS011;46163;52.306;5.634;2022-10-19T02:12:07;0.60;;;0.50;;
60318;SDS011;46163;52.306;5.634;2022-10-19T02:14:45;0.70;;;0.70;;
60318;SDS011;46163;52.306;5.634;2022-10-19T02:17:27;0.57;;;0.57;;
60318;SDS011;46163;52.306;5.634;2022-10-19T02:19:58;0.52;;;0.52;;
60318;SDS011;46163;52.306;5.634;2022-10-19T02:22:24;0.50;;;0.50;;
60318;SDS011;46163;52.306;5.634;2022-10-19T02:24:50;0.30;;;0.30;;
60318;SDS011;46163;52.306;5.634;2022-10-19T02:27:15;1.40;;;0.70;;
60318;SDS011;46163;52.306;5.634;2022-10-19T02:29:41;0.40;;;0.40;;
60318;SDS011;46163;52.306;5.634;2022-10-19T02:32:07;0.75;;;0.73;;
60318;SDS011;46163;52.306;5.634;2022-10-19T02:34:34;0.75;;;0.70;;
60318;SDS011;46163;52.306;5.634;2022-10-19T02:37:01;0.98;;;0.60;;
60318;SDS011;46163;52.306;5.634;2022-10-19T02:39:27;0.60;;;0.60;;
60318;SDS011;46163;52.306;5.634;2022-10-19T02:42:14;0.50;;;0.50;;
60318;SDS011;46163;52.306;5.634;2022-10-19T02:44:57;0.40;;;0.40;;
60318;SDS011;46163;52.306;5.634;2022-10-19T02:47:28;0.70;;;0.70;;
60318;SDS011;46163;52.306;5.634;2022-10-19T02:49:58;0.50;;;0.50;;
60318;SDS011;46163;52.306;5.634;2022-10-19T02:52:24;0.50;;;0.50;;
60318;SDS011;46163;52.306;5.634;2022-10-19T02:54:49;1.08;;;0.50;;
60318;SDS011;46163;52.306;5.634;2022-10-19T02:57:16;1.65;;;0.60;;
60318;SDS011;46163;52.306;5.634;2022-10-19T02:59:44;1.92;;;0.60;;
60318;SDS011;46163;52.306;5.634;2022-10-19T03:02:09;0.63;;;0.55;;
60318;SDS011;46163;52.306;5.634;2022-10-19T03:04:35;0.45;;;0.45;;
60318;SDS011;46163;52.306;5.634;2022-10-19T03:07:01;1.35;;;0.50;;
60318;SDS011;46163;52.306;5.634;2022-10-19T03:09:27;0.45;;;0.40;;
60318;SDS011;46163;52.306;5.634;2022-10-19T03:11:54;0.55;;;0.55;;
60318;SDS011;46163;52.306;5.634;2022-10-19T03:14:20;0.55;;;0.55;;
60318;SDS011;46163;52.306;5.634;2022-10-19T03:16:46;0.47;;;0.47;;
60318;SDS011;46163;52.306;5.634;2022-10-19T03:19:11;0.47;;;0.47;;
60318;SDS011;46163;52.306;5.634;2022-10-19T03:21:37;0.68;;;0.68;;
60318;SDS011;46163;52.306;5.634;2022-10-19T03:24:03;0.60;;;0.60;;
60318;SDS011;46163;52.306;5.634;2022-10-19T03:26:29;0.40;;;0.40;;
60318;SDS011;46163;52.306;5.634;2022-10-19T03:28:54;0.40;;;0.40;;
60318;SDS011;46163;52.306;5.634;2022-10-19T03:31:19;0.63;;;0.63;;
60318;SDS011;46163;52.306;5.634;2022-10-19T03:33:45;0.40;;;0.40;;
60318;SDS011;46163;52.306;5.634;2022-10-19T03:36:14;0.60;;;0.60;;
60318;SDS011;46163;52.306;5.634;2022-10-19T03:38:51;0.47;;;0.47;;
60318;SDS011;46163;52.306;5.634;2022-10-19T03:41:18;0.40;;;0.40;;
60318;SDS011;46163;52.306;5.634;2022-10-19T03:43:45;1.35;;;0.77;;
60318;SDS011;46163;52.306;5.634;2022-10-19T03:46:10;0.40;;;0.40;;
60318;SDS011;46163;52.306;5.634;2022-10-19T03:48:36;0.70;;;0.70;;
60318;SDS011;46163;52.306;5.634;2022-10-19T03:51:03;0.55;;;0.55;;
60318;SDS011;46163;52.306;5.634;2022-10-19T03:53:34;0.50;;;0.50;;
60318;SDS011;46163;52.306;5.634;2022-10-19T03:56:00;0.50;;;0.50;;
60318;SDS011;46163;52.306;5.634;2022-10-19T03:58:27;0.50;;;0.50;;
60318;SDS011;46163;52.306;5.634;2022-10-19T04:00:53;0.75;;;0.55;;
60318;SDS011;46163;52.306;5.634;2022-10-19T04:03:19;0.70;;;0.52;;
60318;SDS011;46163;52.306;5.634;2022-10-19T04:05:44;0.40;;;0.40;;
60318;SDS011;46163;52.306;5.634;2022-10-19T04:08:10;0.80;;;0.50;;
60318;SDS011;46163;52.306;5.634;2022-10-19T04:10:35;0.32;;;0.32;;
60318;SDS011;46163;52.306;5.634;2022-10-19T04:13:01;0.45;;;0.45;;
60318;SDS011;46163;52.306;5.634;2022-10-19T04:15:26;0.47;;;0.47;;
60318;SDS011;46163;52.306;5.634;2022-10-19T04:17:52;0.50;;;0.50;;
60318;SDS011;46163;52.306;5.634;2022-10-19T04:20:17;0.40;;;0.40;;
60318;SDS011;46163;52.306;5.634;2022-10-19T04:22:44;0.50;;;0.50;;
60318;SDS011;46163;52.306;5.634;2022-10-19T04:25:10;0.40;;;0.40;;
60318;SDS011;46163;52.306;5.634;2022-10-19T04:27:36;0.55;;;0.45;;
60318;SDS011;46163;52.306;5.634;2022-10-19T04:30:02;0.40;;;0.40;;
60318;SDS011;46163;52.306;5.634;2022-10-19T04:32:28;0.60;;;0.60;;
60318;SDS011;46163;52.306;5.634;2022-10-19T04:34:53;1.23;;;0.40;;
60318;SDS011;46163;52.306;5.634;2022-10-19T04:37:19;0.40;;;0.40;;
60318;SDS011;46163;52.306;5.634;2022-10-19T04:39:45;0.40;;;0.40;;
60318;SDS011;46163;52.306;5.634;2022-10-19T04:42:10;0.40;;;0.40;;
60318;SDS011;46163;52.306;5.634;2022-10-19T04:44:43;0.50;;;0.50;;
60318;SDS011;46163;52.306;5.634;2022-10-19T04:47:09;0.50;;;0.50;;
60318;SDS011;46163;52.306;5.634;2022-10-19T04:49:34;0.40;;;0.40;;
60318;SDS011;46163;52.306;5.634;2022-10-19T04:51:59;0.40;;;0.40;;
60318;SDS011;46163;52.306;5.634;2022-10-19T04:54:25;0.40;;;0.40;;
60318;SDS011;46163;52.306;5.634;2022-10-19T04:56:50;0.40;;;0.40;;
60318;SDS011;46163;52.306;5.634;2022-10-19T04:59:17;0.25;;;0.25;;
60318;SDS011;46163;52.306;5.634;2022-10-19T05:01:44;0.40;;;0.40;;
60318;SDS011;46163;52.306;5.634;2022-10-19T05:04:09;0.40;;;0.40;;
60318;SDS011;46163;52.306;5.634;2022-10-19T05:06:36;0.40;;;0.40;;
60318;SDS011;46163;52.306;5.634;2022-10-19T05:09:02;0.88;;;0.40;;
60318;SDS011;46163;52.306;5.634;2022-10-19T05:11:27;0.40;;;0.40;;
60318;SDS011;46163;52.306;5.634;2022-10-19T05:13:53;0.40;;;0.40;;
60318;SDS011;46163;52.306;5.634;2022-10-19T05:16:21;0.40;;;0.40;;
60318;SDS011;46163;52.306;5.634;2022-10-19T05:18:51;0.47;;;0.47;;
60318;SDS011;46163;52.306;5.634;2022-10-19T05:21:20;0.30;;;0.30;;
60318;SDS011;46163;52.306;5.634;2022-10-19T05:23:46;0.50;;;0.50;;
60318;SDS011;46163;52.306;5.634;2022-10-19T05:26:15;0.40;;;0.40;;
60318;SDS011;46163;52.306;5.634;2022-10-19T05:28:46;0.40;;;0.40;;
60318;SDS011;46163;52.306;5.634;2022-10-19T05:31:13;0.40;;;0.40;;
60318;SDS011;46163;52.306;5.634;2022-10-19T05:33:41;0.63;;;0.40;;
60318;SDS011;46163;52.306;5.634;2022-10-19T05:38:46;0.35;;;0.35;;
60318;SDS011;46163;52.306;5.634;2022-10-19T05:43:39;0.30;;;0.30;;
60318;SDS011;46163;52.306;5.634;2022-10-19T05:46:09;0.50;;;0.50;;
60318;SDS011;46163;52.306;5.634;2022-10-19T05:48:37;0.40;;;0.40;;
60318;SDS011;46163;52.306;5.634;2022-10-19T05:51:05;0.30;;;0.30;;
60318;SDS011;46163;52.306;5.634;2022-10-19T05:53:33;0.57;;;0.57;;
60318;SDS011;46163;52.306;5.634;2022-10-19T05:55:59;0.30;;;0.30;;
60318;SDS011;46163;52.306;5.634;2022-10-19T05:58:24;0.32;;;0.32;;
60318;SDS011;46163;52.306;5.634;2022-10-19T06:00:51;0.40;;;0.40;;
60318;SDS011;46163;52.306;5.634;2022-10-19T06:03:18;0.55;;;0.55;;
60318;SDS011;46163;52.306;5.634;2022-10-19T06:05:44;0.90;;;0.50;;
60318;SDS011;46163;52.306;5.634;2022-10-19T06:08:09;0.45;;;0.40;;
60318;SDS011;46163;52.306;5.634;2022-10-19T06:10:35;0.47;;;0.47;;
60318;SDS011;46163;52.306;5.634;2022-10-19T06:13:00;0.77;;;0.50;;
60318;SDS011;46163;52.306;5.634;2022-10-19T06:15:25;0.50;;;0.50;;
60318;SDS011;46163;52.306;5.634;2022-10-19T06:17:51;0.75;;;0.75;;
60318;SDS011;46163;52.306;5.634;2022-10-19T06:20:16;0.40;;;0.40;;
60318;SDS011;46163;52.306;5.634;2022-10-19T06:22:42;1.52;;;0.63;;
60318;SDS011;46163;52.306;5.634;2022-10-19T06:25:07;1.05;;;0.60;;
60318;SDS011;46163;52.306;5.634;2022-10-19T06:27:33;0.60;;;0.60;;
60318;SDS011;46163;52.306;5.634;2022-10-19T06:29:59;0.50;;;0.50;;
60318;SDS011;46163;52.306;5.634;2022-10-19T06:32:25;0.57;;;0.50;;
60318;SDS011;46163;52.306;5.634;2022-10-19T06:34:52;1.15;;;0.63;;
60318;SDS011;46163;52.306;5.634;2022-10-19T06:37:17;2.17;;;0.52;;
60318;SDS011;46163;52.306;5.634;2022-10-19T06:39:43;1.17;;;0.73;;
60318;SDS011;46163;52.306;5.634;2022-10-19T06:42:09;0.65;;;0.47;;
60318;SDS011;46163;52.306;5.634;2022-10-19T06:44:37;0.52;;;0.52;;
60318;SDS011;46163;52.306;5.634;2022-10-19T06:47:04;0.68;;;0.50;;
60318;SDS011;46163;52.306;5.634;2022-10-19T06:49:30;1.10;;;0.90;;
60318;SDS011;46163;52.306;5.634;2022-10-19T06:51:55;0.55;;;0.43;;
60318;SDS011;46163;52.306;5.634;2022-10-19T06:54:23;1.05;;;0.90;;
60318;SDS011;46163;52.306;5.634;2022-10-19T06:56:49;1.95;;;0.60;;
60318;SDS011;46163;52.306;5.634;2022-10-19T06:59:17;1.75;;;0.55;;
60318;SDS011;46163;52.306;5.634;2022-10-19T07:01:42;0.70;;;0.70;;
60318;SDS011;46163;52.306;5.634;2022-10-19T07:04:08;1.20;;;0.60;;
60318;SDS011;46163;52.306;5.634;2022-10-19T07:06:33;2.08;;;0.50;;
60318;SDS011;46163;52.306;5.634;2022-10-19T07:08:59;1.25;;;0.65;;
60318;SDS011;46163;52.306;5.634;2022-10-19T07:11:26;0.52;;;0.50;;
60318;SDS011;46163;52.306;5.634;2022-10-19T07:13:52;0.50;;;0.50;;
60318;SDS011;46163;52.306;5.634;2022-10-19T07:16:17;1.55;;;0.70;;
60318;SDS011;46163;52.306;5.634;2022-10-19T07:18:44;1.08;;;0.63;;
60318;SDS011;46163;52.306;5.634;2022-10-19T07:21:12;0.70;;;0.70;;
60318;SDS011;46163;52.306;5.634;2022-10-19T07:23:39;2.13;;;0.60;;
60318;SDS011;46163;52.306;5.634;2022-10-19T07:26:08;0.50;;;0.50;;
60318;SDS011;46163;52.306;5.634;2022-10-19T07:28:38;0.40;;;0.40;;
60318;SDS011;46163;52.306;5.634;2022-10-19T07:31:05;1.88;;;0.63;;
60318;SDS011;46163;52.306;5.634;2022-10-19T07:33:32;0.77;;;0.60;;
60318;SDS011;46163;52.306;5.634;2022-10-19T07:36:00;0.52;;;0.52;;
60318;SDS011;46163;52.306;5.634;2022-10-19T07:38:27;0.55;;;0.55;;
60318;SDS011;46163;52.306;5.634;2022-10-19T07:41:04;0.60;;;0.60;;
60318;SDS011;46163;52.306;5.634;2022-10-19T07:45:58;0.60;;;0.60;;
60318;SDS011;46163;52.306;5.634;2022-10-19T07:48:28;3.20;;;0.80;;
60318;SDS011;46163;52.306;5.634;2022-10-19T07:50:53;1.00;;;0.90;;
60318;SDS011;46163;52.306;5.634;2022-10-19T07:53:22;3.05;;;0.77;;
60318;SDS011;46163;52.306;5.634;2022-10-19T07:55:48;2.90;;;0.90;;
60318;SDS011;46163;52.306;5.634;2022-10-19T07:58:14;1.25;;;1.02;;
60318;SDS011;46163;52.306;5.634;2022-10-19T08:00:40;0.95;;;0.60;;
60318;SDS011;46163;52.306;5.634;2022-10-19T08:03:06;0.68;;;0.63;;
60318;SDS011;46163;52.306;5.634;2022-10-19T08:05:32;2.47;;;0.82;;
60318;SDS011;46163;52.306;5.634;2022-10-19T08:07:58;0.80;;;0.70;;
60318;SDS011;46163;52.306;5.634;2022-10-19T08:10:24;0.77;;;0.70;;
60318;SDS011;46163;52.306;5.634;2022-10-19T08:12:51;0.60;;;0.60;;
60318;SDS011;46163;52.306;5.634;2022-10-19T08:15:17;1.98;;;0.70;;
60318;SDS011;46163;52.306;5.634;2022-10-19T08:17:43;0.45;;;0.45;;
60318;SDS011;46163;52.306;5.634;2022-10-19T08:20:08;0.70;;;0.70;;
60318;SDS011;46163;52.306;5.634;2022-10-19T08:22:34;0.57;;;0.50;;
60318;SDS011;46163;52.306;5.634;2022-10-19T08:25:01;0.60;;;0.60;;
60318;SDS011;46163;52.306;5.634;2022-10-19T08:27:26;1.95;;;0.73;;
60318;SDS011;46163;52.306;5.634;2022-10-19T08:29:53;0.80;;;0.77;;
60318;SDS011;46163;52.306;5.634;2022-10-19T08:32:19;0.47;;;0.47;;
60318;SDS011;46163;52.306;5.634;2022-10-19T08:34:45;1.38;;;0.70;;
60318;SDS011;46163;52.306;5.634;2022-10-19T08:37:10;1.40;;;0.63;;
60318;SDS011;46163;52.306;5.634;2022-10-19T08:39:36;0.90;;;0.50;;
60318;SDS011;46163;52.306;5.634;2022-10-19T08:42:07;0.40;;;0.40;;
60318;SDS011;46163;52.306;5.634;2022-10-19T08:44:45;0.40;;;0.40;;
60318;SDS011;46163;52.306;5.634;2022-10-19T08:50:25;0.63;;;0.52;;
60318;SDS011;46163;52.306;5.634;2022-10-19T08:55:26;0.50;;;0.50;;
60318;SDS011;46163;52.306;5.634;2022-10-19T09:08:29;0.50;;;0.50;;
60318;SDS011;46163;52.306;5.634;2022-10-19T09:10:54;0.80;;;0.50;;
60318;SDS011;46163;52.306;5.634;2022-10-19T09:13:25;0.82;;;0.50;;
60318;SDS011;46163;52.306;5.634;2022-10-19T09:15:57;0.30;;;0.30;;
60318;SDS011;46163;52.306;5.634;2022-10-19T09:18:31;0.43;;;0.43;;
60318;SDS011;46163;52.306;5.634;2022-10-19T09:21:06;0.98;;;0.50;;
60318;SDS011;46163;52.306;5.634;2022-10-19T09:23:39;0.40;;;0.40;;
60318;SDS011;46163;52.306;5.634;2022-10-19T09:26:20;0.43;;;0.43;;
60318;SDS011;46163;52.306;5.634;2022-10-19T09:28:54;0.40;;;0.40;;
60318;SDS011;46163;52.306;5.634;2022-10-19T09:34:01;0.38;;;0.38;;
60318;SDS011;46163;52.306;5.634;2022-10-19T09:36:44;1.45;;;0.38;;
60318;SDS011;46163;52.306;5.634;2022-10-19T09:39:15;0.40;;;0.40;;
60318;SDS011;46163;52.306;5.634;2022-10-19T09:41:54;0.40;;;0.40;;
60318;SDS011;46163;52.306;5.634;2022-10-19T09:44:24;0.38;;;0.38;;
60318;SDS011;46163;52.306;5.634;2022-10-19T09:47:01;0.30;;;0.30;;
60318;SDS011;46163;52.306;5.634;2022-10-19T09:49:42;0.52;;;0.45;;
60318;SDS011;46163;52.306;5.634;2022-10-19T09:55:16;0.73;;;0.60;;
60318;SDS011;46163;52.306;5.634;2022-10-19T09:57:48;0.55;;;0.50;;
60318;SDS011;46163;52.306;5.634;2022-10-19T10:00:22;0.55;;;0.55;;
60318;SDS011;46163;52.306;5.634;2022-10-19T10:02:50;0.43;;;0.43;;
60318;SDS011;46163;52.306;5.634;2022-10-19T10:05:18;1.45;;;0.60;;
60318;SDS011;46163;52.306;5.634;2022-10-19T10:07:53;0.50;;;0.50;;
60318;SDS011;46163;52.306;5.634;2022-10-19T10:10:20;0.47;;;0.47;;
60318;SDS011;46163;52.306;5.634;2022-10-19T10:12:49;0.57;;;0.47;;
60318;SDS011;46163;52.306;5.634;2022-10-19T10:15:17;0.95;;;0.60;;
60318;SDS011;46163;52.306;5.634;2022-10-19T10:17:47;2.05;;;0.60;;
60318;SDS011;46163;52.306;5.634;2022-10-19T10:23:01;0.57;;;0.57;;
60318;SDS011;46163;52.306;5.634;2022-10-19T10:25:30;0.60;;;0.60;;
60318;SDS011;46163;52.306;5.634;2022-10-19T10:28:02;0.40;;;0.40;;
60318;SDS011;46163;52.306;5.634;2022-10-19T10:30:40;0.45;;;0.45;;
60318;SDS011;46163;52.306;5.634;2022-10-19T10:33:13;0.52;;;0.52;;
60318;SDS011;46163;52.306;5.634;2022-10-19T10:35:40;0.35;;;0.35;;
60318;SDS011;46163;52.306;5.634;2022-10-19T10:38:17;1.17;;;0.77;;
60318;SDS011;46163;52.306;5.634;2022-10-19T10:40:51;0.50;;;0.45;;
60318;SDS011;46163;52.306;5.634;2022-10-19T10:43:26;0.47;;;0.47;;
60318;SDS011;46163;52.306;5.634;2022-10-19T10:46:04;0.40;;;0.40;;
60318;SDS011;46163;52.306;5.634;2022-10-19T10:48:36;1.98;;;0.80;;
60318;SDS011;46163;52.306;5.634;2022-10-19T10:51:21;1.33;;;0.60;;
60318;SDS011;46163;52.306;5.634;2022-10-19T10:56:39;0.90;;;0.60;;
60318;SDS011;46163;52.306;5.634;2022-10-19T10:59:17;0.50;;;0.50;;
60318;SDS011;46163;52.306;5.634;2022-10-19T11:02:01;1.00;;;0.80;;
60318;SDS011;46163;52.306;5.634;2022-10-19T11:04:30;0.85;;;0.70;;
60318;SDS011;46163;52.306;5.634;2022-10-19T11:07:18;0.57;;;0.57;;
60318;SDS011;46163;52.306;5.634;2022-10-19T11:12:30;0.50;;;0.50;;
60318;SDS011;46163;52.306;5.634;2022-10-19T11:15:02;0.80;;;0.65;;
60318;SDS011;46163;52.306;5.634;2022-10-19T11:17:35;1.10;;;0.60;;
60318;SDS011;46163;52.306;5.634;2022-10-19T11:20:09;2.75;;;0.88;;
60318;SDS011;46163;52.306;5.634;2022-10-19T11:22:43;2.47;;;0.70;;
60318;SDS011;46163;52.306;5.634;2022-10-19T11:25:28;0.88;;;0.70;;
60318;SDS011;46163;52.306;5.634;2022-10-19T11:39:17;1.27;;;0.73;;
60318;SDS011;46163;52.306;5.634;2022-10-19T11:53:46;0.68;;;0.68;;
60318;SDS011;46163;52.306;5.634;2022-10-19T11:56:30;3.92;;;0.82;;
60318;SDS011;46163;52.306;5.634;2022-10-19T12:05:12;0.95;;;0.70;;
60318;SDS011;46163;52.306;5.634;2022-10-19T12:07:21;1.00;;;0.80;;
60318;SDS011;46163;52.306;5.634;2022-10-19T12:10:13;0.68;;;0.68;;
60318;SDS011;46163;52.306;5.634;2022-10-19T12:12:47;1.33;;;0.70;;
60318;SDS011;46163;52.306;5.634;2022-10-19T12:15:19;1.00;;;0.90;;
60318;SDS011;46163;52.306;5.634;2022-10-19T12:18:03;1.05;;;0.60;;
60318;SDS011;46163;52.306;5.634;2022-10-19T12:20:36;1.63;;;0.88;;
60318;SDS011;46163;52.306;5.634;2022-10-19T12:23:28;1.08;;;0.70;;
60318;SDS011;46163;52.306;5.634;2022-10-19T12:25:56;1.65;;;0.55;;
60318;SDS011;46163;52.306;5.634;2022-10-19T12:28:29;3.17;;;1.02;;
60318;SDS011;46163;52.306;5.634;2022-10-19T12:30:57;1.27;;;0.60;;
60318;SDS011;46163;52.306;5.634;2022-10-19T12:33:48;2.15;;;0.70;;
60318;SDS011;46163;52.306;5.634;2022-10-19T12:39:04;3.00;;;0.80;;
60318;SDS011;46163;52.306;5.634;2022-10-19T12:47:38;0.77;;;0.60;;
60318;SDS011;46163;52.306;5.634;2022-10-19T12:50:04;1.75;;;0.75;;
60318;SDS011;46163;52.306;5.634;2022-10-19T12:52:43;1.35;;;0.70;;
60318;SDS011;46163;52.306;5.634;2022-10-19T12:57:44;1.00;;;0.82;;
60318;SDS011;46163;52.306;5.634;2022-10-19T13:00:19;1.58;;;0.90;;
60318;SDS011;46163;52.306;5.634;2022-10-19T13:02:57;1.10;;;0.70;;
60318;SDS011;46163;52.306;5.634;2022-10-19T13:05:38;1.25;;;0.90;;
60318;SDS011;46163;52.306;5.634;2022-10-19T13:08:03;0.63;;;0.55;;
60318;SDS011;46163;52.306;5.634;2022-10-19T13:10:31;1.65;;;0.80;;
60318;SDS011;46163;52.306;5.634;2022-10-19T13:12:58;2.00;;;0.55;;
60318;SDS011;46163;52.306;5.634;2022-10-19T13:18:00;1.95;;;0.85;;
60318;SDS011;46163;52.306;5.634;2022-10-19T13:20:40;1.55;;;0.90;;
60318;SDS011;46163;52.306;5.634;2022-10-19T13:25:41;2.70;;;0.98;;
60318;SDS011;46163;52.306;5.634;2022-10-19T13:36:13;0.60;;;0.60;;
60318;SDS011;46163;52.306;5.634;2022-10-19T13:38:41;1.08;;;0.90;;
60318;SDS011;46163;52.306;5.634;2022-10-19T13:41:10;2.00;;;1.00;;
60318;SDS011;46163;52.306;5.634;2022-10-19T13:43:47;2.25;;;0.88;;
60318;SDS011;46163;52.306;5.634;2022-10-19T13:46:59;1.23;;;0.80;;
60318;SDS011;46163;52.306;5.634;2022-10-19T14:00:36;0.75;;;0.60;;
60318;SDS011;46163;52.306;5.634;2022-10-19T14:06:26;0.52;;;0.50;;
60318;SDS011;46163;52.306;5.634;2022-10-19T14:11:49;3.70;;;0.57;;
60318;SDS011;46163;52.306;5.634;2022-10-19T14:14:18;0.57;;;0.55;;
60318;SDS011;46163;52.306;5.634;2022-10-19T14:21:51;0.73;;;0.70;;
60318;SDS011;46163;52.306;5.634;2022-10-19T14:24:26;0.90;;;0.52;;
60318;SDS011;46163;52.306;5.634;2022-10-19T14:26:53;0.90;;;0.80;;
60318;SDS011;46163;52.306;5.634;2022-10-19T14:29:19;1.77;;;0.73;;
60318;SDS011;46163;52.306;5.634;2022-10-19T14:31:45;0.40;;;0.40;;
60318;SDS011;46163;52.306;5.634;2022-10-19T14:34:12;1.13;;;0.80;;
60318;SDS011;46163;52.306;5.634;2022-10-19T14:39:20;2.45;;;0.70;;
60318;SDS011;46163;52.306;5.634;2022-10-19T14:41:51;0.60;;;0.60;;
60318;SDS011;46163;52.306;5.634;2022-10-19T14:47:15;1.27;;;0.85;;
60318;SDS011;46163;52.306;5.634;2022-10-19T14:49:50;0.88;;;0.88;;
60318;SDS011;46163;52.306;5.634;2022-10-19T14:52:18;0.90;;;0.90;;
60318;SDS011;46163;52.306;5.634;2022-10-19T14:54:48;1.40;;;1.20;;
60318;SDS011;46163;52.306;5.634;2022-10-19T14:57:27;0.80;;;0.80;;
60318;SDS011;46163;52.306;5.634;2022-10-19T15:00:03;0.88;;;0.88;;
60318;SDS011;46163;52.306;5.634;2022-10-19T15:02:41;0.63;;;0.63;;
60318;SDS011;46163;52.306;5.634;2022-10-19T15:05:16;1.35;;;1.00;;
60318;SDS011;46163;52.306;5.634;2022-10-19T15:07:45;2.72;;;0.95;;
60318;SDS011;46163;52.306;5.634;2022-10-19T15:10:17;1.67;;;1.20;;
60318;SDS011;46163;52.306;5.634;2022-10-19T15:12:43;2.65;;;1.15;;
60318;SDS011;46163;52.306;5.634;2022-10-19T15:15:21;5.30;;;1.38;;
60318;SDS011;46163;52.306;5.634;2022-10-19T15:17:51;1.52;;;1.15;;
60318;SDS011;46163;52.306;5.634;2022-10-19T15:20:41;1.45;;;1.27;;
60318;SDS011;46163;52.306;5.634;2022-10-19T15:28:51;1.13;;;1.03;;
60318;SDS011;46163;52.306;5.634;2022-10-19T15:31:24;1.35;;;1.25;;
60318;SDS011;46163;52.306;5.634;2022-10-19T15:33:54;1.13;;;1.02;;
60318;SDS011;46163;52.306;5.634;2022-10-19T15:36:25;1.92;;;1.20;;
60318;SDS011;46163;52.306;5.634;2022-10-19T15:39:04;1.77;;;1.23;;
60318;SDS011;46163;52.306;5.634;2022-10-19T15:41:33;1.30;;;1.20;;
60318;SDS011;46163;52.306;5.634;2022-10-19T15:44:00;1.63;;;1.20;;
60318;SDS011;46163;52.306;5.634;2022-10-19T15:51:43;2.50;;;1.20;;
60318;SDS011;46163;52.306;5.634;2022-10-19T15:54:13;4.50;;;1.20;;
60318;SDS011;46163;52.306;5.634;2022-10-19T15:56:41;14.20;;;0.95;;
60318;SDS011;46163;52.306;5.634;2022-10-19T15:59:26;2.47;;;1.15;;
60318;SDS011;46163;52.306;5.634;2022-10-19T16:01:52;1.83;;;1.08;;
60318;SDS011;46163;52.306;5.634;2022-10-19T16:04:17;2.13;;;1.10;;
60318;SDS011;46163;52.306;5.634;2022-10-19T16:06:43;1.20;;;1.10;;
60318;SDS011;46163;52.306;5.634;2022-10-19T16:09:15;3.47;;;1.10;;
60318;SDS011;46163;52.306;5.634;2022-10-19T16:11:43;1.30;;;1.20;;
60318;SDS011;46163;52.306;5.634;2022-10-19T16:14:09;1.27;;;0.98;;
60318;SDS011;46163;52.306;5.634;2022-10-19T16:16:35;1.80;;;1.33;;
60318;SDS011;46163;52.306;5.634;2022-10-19T16:19:00;4.05;;;1.02;;
60318;SDS011;46163;52.306;5.634;2022-10-19T16:21:28;3.30;;;1.27;;
60318;SDS011;46163;52.306;5.634;2022-10-19T16:23:56;4.03;;;1.10;;
60318;SDS011;46163;52.306;5.634;2022-10-19T16:26:24;2.72;;;1.10;;
60318;SDS011;46163;52.306;5.634;2022-10-19T16:28:52;2.47;;;1.13;;
60318;SDS011;46163;52.306;5.634;2022-10-19T16:31:19;1.85;;;1.30;;
60318;SDS011;46163;52.306;5.634;2022-10-19T16:33:47;1.35;;;0.98;;
60318;SDS011;46163;52.306;5.634;2022-10-19T16:36:13;3.00;;;0.93;;
60318;SDS011;46163;52.306;5.634;2022-10-19T16:38:38;2.15;;;1.10;;
60318;SDS011;46163;52.306;5.634;2022-10-19T16:41:05;1.85;;;1.05;;
60318;SDS011;46163;52.306;5.634;2022-10-19T16:43:33;2.28;;;1.08;;
60318;SDS011;46163;52.306;5.634;2022-10-19T16:45:59;0.90;;;0.90;;
60318;SDS011;46163;52.306;5.634;2022-10-19T16:48:25;2.90;;;1.10;;
60318;SDS011;46163;52.306;5.634;2022-10-19T16:51:07;2.60;;;0.98;;
60318;SDS011;46163;52.306;5.634;2022-10-19T16:53:42;1.55;;;1.05;;
60318;SDS011;46163;52.306;5.634;2022-10-19T16:56:09;2.17;;;0.90;;
60318;SDS011;46163;52.306;5.634;2022-10-19T16:58:36;3.95;;;1.00;;
60318;SDS011;46163;52.306;5.634;2022-10-19T17:01:09;1.52;;;1.00;;
60318;SDS011;46163;52.306;5.634;2022-10-19T17:03:38;1.42;;;1.10;;
60318;SDS011;46163;52.306;5.634;2022-10-19T17:06:04;1.38;;;0.90;;
60318;SDS011;46163;52.306;5.634;2022-10-19T17:08:31;0.70;;;0.70;;
60318;SDS011;46163;52.306;5.634;2022-10-19T17:10:57;1.63;;;0.90;;
60318;SDS011;46163;52.306;5.634;2022-10-19T17:13:32;2.50;;;0.88;;
60318;SDS011;46163;52.306;5.634;2022-10-19T17:16:00;0.80;;;0.80;;
60318;SDS011;46163;52.306;5.634;2022-10-19T17:18:27;1.42;;;1.00;;
60318;SDS011;46163;52.306;5.634;2022-10-19T17:20:52;0.90;;;0.90;;
60318;SDS011;46163;52.306;5.634;2022-10-19T17:23:18;0.85;;;0.85;;
60318;SDS011;46163;52.306;5.634;2022-10-19T17:25:47;1.77;;;0.85;;
60318;SDS011;46163;52.306;5.634;2022-10-19T17:28:16;0.95;;;0.80;;
60318;SDS011;46163;52.306;5.634;2022-10-19T17:30:42;0.80;;;0.80;;
60318;SDS011;46163;52.306;5.634;2022-10-19T17:33:08;6.53;;;0.90;;
60318;SDS011;46163;52.306;5.634;2022-10-19T17:35:34;0.75;;;0.75;;
60318;SDS011;46163;52.306;5.634;2022-10-19T17:37:59;0.80;;;0.60;;